Station: Portable Btse (Dfes)  

  Atmospheric Gas Attenuation - ITU Rec 676-11   ----------------- dB/100km -----------------
Date Time Temp RH % AH g/m3 Dew Point Wind Direction Speed kph Gust kph Barometer mB Rainfall Since 9am 24GHz 47GHz 76GHz 122GHz 134GHz 241GHz
04/09 06:50 17 92 13.31 15.7 0 0 1013.1 0 29.5 32.9 57.9 152.8 159.0 550.7
04/09 06:40 16.3 94 13.04 15.3 0 0 1013.1 0 29.0 32.7 57.2 150.9 156.5 541.8
04/09 06:30 16 94 12.81 15 2 4 1013.1 0 28.5 32.4 56.4 148.7 153.7 532.1
04/09 06:20 16.1 93 12.75 15 2 4 1013.1 0 28.4 32.2 56.1 147.8 152.6 528.3
04/09 06:10 16.3 93 12.9 15.1 4 4 1013.1 0 28.7 32.4 56.6 149.2 154.4 534.6
04/09 06:00 16.3 91 12.62 14.8 6 7 1013.1 0 28.1 31.9 55.3 145.9 150.3 520.2
04/09 05:50 16.3 93 12.9 15.1 0 0 1013.1 0 28.7 32.4 56.6 149.2 154.4 534.6
04/09 05:40 16.4 93 12.98 15.3 2 4 1013.1 0 28.8 32.5 56.9 150.0 155.4 538.0
04/09 05:30 16.9 92 13.23 15.6 2 4 1013.1 0 29.3 32.8 57.6 152.0 158.1 547.3
03/09 06:30 16.8 72 10.29 11.8 4 6 1013.1 0 23.0 27.7 45.0 118.5 116.8 403.1
03/09 06:10 13.8 82 9.77 10.8 4 6 1013.1 0 22.1 27.8 44.6 117.2 114.2 393.7
03/09 06:00 12.5 89 9.79 10.7 6 7 1013.1 0 22.2 28.3 45.4 119.5 116.4 401.3
03/09 05:50 12.3 87 9.45 10.2 2 4 1013.1 0 21.5 27.8 44.1 115.9 112.0 385.7
03/09 05:40 12 88 9.38 10.1 4 7 1013.1 0 21.4 27.7 44.0 115.6 111.4 383.8
03/09 05:30 12.2 87 9.39 10.1 4 7 1013.1 0 21.4 27.7 43.9 115.4 111.3 383.3
03/09 05:20 12 87 9.27 9.9 6 7 1013.1 0 21.1 27.5 43.5 114.3 109.9 378.5
03/09 05:10 11.7 88 9.21 9.8 2 7 1013.1 0 21.0 27.5 43.4 114.1 109.5 377.0
03/09 05:00 11.9 87 9.22 9.8 6 7 1013.1 0 21.0 27.5 43.3 113.9 109.3 376.5
03/09 04:50 12.4 85 9.29 10 2 7 1013.1 0 21.1 27.5 43.4 113.9 109.6 377.5
03/09 04:40 12.4 85 9.29 9.9 2 4 1013.1 0 21.1 27.5 43.4 113.9 109.6 377.5
03/09 04:30 12.5 84 9.24 9.9 2 6 1013.1 0 21.0 27.3 43.1 113.2 108.8 374.6
03/09 04:20 12.6 82 9.07 9.7 4 6 1013.1 0 20.7 27.0 42.3 111.2 106.3 365.9
03/09 04:10 12.8 81 9.07 9.7 4 7 1013.1 0 20.6 27.0 42.2 110.9 106.0 365.0
03/09 04:00 12.5 82 9.02 9.5 4 6 1013.1 0 20.6 27.0 42.2 110.8 105.7 364.0
03/09 03:50 12.4 83 9.07 9.7 4 6 1013.1 0 20.7 27.1 42.4 111.5 106.6 366.9
03/09 03:40 12.5 81 8.91 9.3 4 7 1013.1 0 20.3 26.8 41.7 109.6 104.2 358.8
03/09 03:30 12.5 81 8.91 9.4 4 6 1013.1 0 20.3 26.8 41.7 109.6 104.2 358.8
03/09 03:20 12.6 80 8.85 9.3 4 6 1013.1 0 20.2 26.7 41.4 108.8 103.3 355.5
03/09 03:10 13.2 78 8.96 9.5 6 6 1013.1 0 20.4 26.7 41.6 109.1 104.0 357.9
03/09 03:00 13.9 73 8.75 9.2 6 7 1013.1 0 19.9 26.1 40.3 105.9 100.2 345.0
03/09 02:50 13.6 75 8.83 9.2 4 7 1013.1 0 20.1 26.3 40.8 107.2 101.7 350.0
03/09 02:40 13.5 75 8.77 9.1 0 2 1013.1 0 20.0 26.3 40.6 106.7 101.0 347.7
03/09 02:30 13.8 74 8.82 9.3 2 6 1013.1 0 20.1 26.2 40.7 106.8 101.3 348.7
03/09 02:20 14.4 69 8.53 8.8 9 13 1013.1 0 19.4 25.6 39.2 102.9 96.7 332.7
03/09 02:10 14.1 69 8.37 8.6 11 15 1013.1 0 19.1 25.4 38.7 101.6 95.0 326.6
03/09 02:00 13.6 73 8.59 8.8 6 11 1013.1 0 19.6 25.9 39.9 104.6 98.5 338.9
03/09 01:50 14 71 8.56 8.9 6 9 1013.1 0 19.5 25.8 39.5 103.7 97.6 335.8
03/09 01:40 14.6 72 9.01 9.6 6 9 1013.1 0 20.4 26.3 41.0 107.8 102.8 353.9
03/09 01:30 15.9 65 8.8 9.5 9 15 1013.1 0 19.9 25.6 39.5 103.8 98.3 338.6
03/09 01:20 15.7 62 8.3 8.5 6 11 1013.1 0 18.9 24.9 37.7 98.8 92.2 317.0
03/09 01:10 14.3 67 8.23 8.2 7 11 1013.1 0 18.8 25.2 38.1 99.9 92.9 319.4
03/09 01:00 13.6 71 8.36 8.5 6 9 1013.1 0 19.1 25.6 38.9 102.1 95.5 328.2
03/09 00:50 13 74 8.39 8.6 6 11 1013.1 0 19.2 25.8 39.3 103.2 96.6 332.1
03/09 00:40 13.6 74 8.71 9 4 7 1013.1 0 19.8 26.1 40.3 105.9 100.1 344.4
03/09 00:30 13.9 71 8.51 8.7 4 6 1013.1 0 19.4 25.7 39.4 103.3 97.1 333.9
03/09 00:20 14.2 70 8.55 8.8 6 9 1013.1 0 19.5 25.7 39.4 103.4 97.2 334.4
03/09 00:10 14.3 68 8.35 8.5 11 15 1013.1 0 19.0 25.3 38.5 101.1 94.5 324.9
03/09 00:00 13.6 70 8.24 8.3 9 13 1013.1 0 18.8 25.4 38.5 100.9 93.9 322.7
02/09 23:50 13.2 75 8.61 9 4 6 1013.1 0 19.6 26.1 40.1 105.3 99.3 341.5
02/09 23:40 13.8 74 8.82 9.2 4 6 1013.1 0 20.1 26.2 40.7 106.8 101.3 348.7
02/09 23:30 14.7 68 8.56 8.8 4 6 1013.1 0 19.5 25.6 39.2 102.8 96.7 332.8
02/09 23:20 14.9 66 8.41 8.7 9 11 1013.1 0 19.1 25.3 38.5 101.0 94.5 325.1
02/09 23:10 14.6 67 8.38 8.5 6 7 1013.1 0 19.1 25.3 38.5 101.1 94.5 325.0
02/09 23:00 14.7 68 8.56 9 2 6 1013.1 0 19.5 25.6 39.2 102.8 96.7 332.8
02/09 22:50 14.8 67 8.49 8.7 2 4 1013.1 0 19.3 25.4 38.9 102.0 95.7 329.2
02/09 22:40 14.7 67 8.44 8.6 4 6 1013.1 0 19.2 25.4 38.7 101.6 95.2 327.3
02/09 22:30 14.9 67 8.54 8.8 4 6 1013.1 0 19.4 25.5 39.0 102.4 96.2 331.0
02/09 22:20 15.1 66 8.51 8.8 2 4 1013.1 0 19.3 25.4 38.8 101.8 95.6 328.8
02/09 22:10 15.2 67 8.7 9.1 4 6 1013.1 0 19.7 25.6 39.5 103.7 97.9 337.0
02/09 22:00 15.6 64 8.51 8.9 6 7 1013.1 0 19.3 25.2 38.5 101.1 95.0 326.8
02/09 21:50 15.7 64 8.56 8.9 7 9 1013.1 0 19.4 25.3 38.7 101.5 95.5 328.6
02/09 21:40 15.4 66 8.67 9.1 4 6 1013.1 0 19.7 25.5 39.3 103.1 97.3 334.8
02/09 21:30 16.2 64 8.83 9.5 2 6 1013.1 0 20.0 25.6 39.5 103.7 98.4 338.7
02/09 21:20 16.7 59 8.38 8.8 4 6 1013.1 0 19.0 24.7 37.5 98.4 92.0 316.5
02/09 21:10 16.9 58 8.34 8.7 4 6 1013.1 0 18.9 24.6 37.3 97.8 91.3 314.0
02/09 21:00 17 59 8.54 8.9 2 4 1013.1 0 19.3 24.9 38.0 99.7 93.7 322.4
02/09 06:40 15.3 71 9.27 10.2 2 6 1013.1 0 20.9 26.5 41.7 109.6 105.3 362.8
02/09 06:30 13.9 72 8.63 9 4 6 1013.1 0 19.6 25.9 39.9 104.6 98.7 339.4
02/09 06:20 12.7 76 8.46 8.6 4 6 1013.1 0 19.3 26.0 39.8 104.4 97.9 336.7
02/09 06:10 11.6 79 8.21 8.2 2 4 1013.1 0 18.9 25.9 39.3 103.1 96.0 329.6
02/09 06:00 10.7 84 8.25 8.1 4 6 1013.1 0 19.0 26.2 39.9 104.8 97.6 335.4
02/09 05:50 10.5 84 8.15 7.9 6 7 1013.1 0 18.8 26.1 39.6 103.9 96.5 331.5
02/09 05:40 10.5 84 8.15 7.9 4 6 1013.1 0 18.8 26.1 39.6 103.9 96.5 331.5
02/09 05:30 10.4 84 8.1 7.9 2 4 1013.1 0 18.7 26.1 39.5 103.5 96.0 329.5
02/09 05:20 10.6 83 8.1 7.8 6 7 1013.1 0 18.7 26.0 39.4 103.2 95.7 328.7
02/09 05:10 10.4 84 8.1 7.8 2 4 1013.1 0 18.7 26.1 39.5 103.5 96.0 329.5
02/09 05:00 10.5 83 8.05 7.8 4 7 1013.1 0 18.6 26.0 39.2 102.8 95.2 326.7
02/09 04:50 10.2 85 8.09 7.8 2 6 1013.1 0 18.7 26.1 39.5 103.7 96.1 329.9
02/09 04:40 10.3 84 8.05 7.7 4 6 1013.1 0 18.6 26.0 39.3 103.1 95.4 327.6
02/09 04:30 10.5 84 8.15 7.9 2 6 1013.1 0 18.8 26.1 39.6 103.9 96.5 331.5
02/09 04:20 10.9 81 8.06 7.8 0 4 1013.1 0 18.6 25.9 39.0 102.4 94.8 325.5
02/09 04:10 11 81 8.11 7.9 2 4 1013.1 0 18.7 25.9 39.2 102.8 95.4 327.5
02/09 04:00 11 81 8.11 7.9 2 6 1013.1 0 18.7 25.9 39.2 102.8 95.4 327.5
02/09 03:50 10.8 80 7.91 7.6 0 2 1013.1 0 18.3 25.6 38.5 100.9 92.9 318.9
02/09 03:40 10.7 82 8.06 7.7 2 6 1013.1 0 18.6 25.9 39.1 102.7 95.0 326.4
02/09 03:30 10.9 80 7.96 7.7 2 4 1013.1 0 18.4 25.7 38.6 101.3 93.5 320.8
02/09 03:20 11.3 79 8.06 7.8 2 4 1013.1 0 18.6 25.7 38.8 101.9 94.3 323.9
02/09 03:10 11.6 77 8 7.7 2 4 1013.1 0 18.4 25.5 38.5 100.9 93.1 319.8
02/09 03:00 11.8 75 7.89 7.6 4 6 1013.1 0 18.2 25.3 37.9 99.4 91.5 313.9
02/09 02:50 12 74 7.89 7.6 2 6 1013.1 0 18.2 25.3 37.8 99.2 91.2 313.1
02/09 02:40 12 74 7.89 7.6 4 7 1013.1 0 18.2 25.3 37.8 99.2 91.2 313.1
02/09 02:30 12.2 75 8.09 8 4 7 1013.1 0 18.6 25.5 38.5 101.0 93.6 321.6
02/09 02:20 12.3 72 7.82 7.4 4 11 1013.1 0 18.0 25.1 37.4 98.0 89.9 308.7
02/09 02:00 12.2 72 7.77 7.4 2 6 1013.1 0 17.9 25.0 37.2 97.6 89.4 306.8
02/09 01:50 12.3 71 7.71 7.3 4 7 1013.1 0 17.8 24.9 37.0 96.9 88.5 303.7
02/09 01:40 12 72 7.67 7.2 6 7 1013.1 0 17.7 24.9 36.9 96.8 88.3 303.0
02/09 01:30 12.6 70 7.74 7.4 2 4 1013.1 0 17.8 24.8 36.9 96.8 88.6 303.9
02/09 01:20 12.3 72 7.82 7.4 2 6 1013.1 0 18.0 25.1 37.4 98.0 89.9 308.7
02/09 01:10 12.2 72 7.77 7.3 0 2 1013.1 0 17.9 25.0 37.2 97.6 89.4 306.8
02/09 01:00 12.4 72 7.87 7.5 4 6 1013.1 0 18.1 25.1 37.6 98.4 90.5 310.6

Last Refresh: 04-Sep-2026 09:26:06

Bureau of Meteorology